createdAt,value
2023-04-19T04:00:29.290Z,4.72
2023-04-19T04:01:30.251Z,4.70
2023-04-19T04:02:30.304Z,4.70
2023-04-19T04:03:30.346Z,4.69
2023-04-19T04:04:30.426Z,4.73
2023-04-19T04:05:30.290Z,4.75
2023-04-19T04:06:30.200Z,4.73
2023-04-19T04:07:30.204Z,4.69
2023-04-19T04:08:30.178Z,4.65
2023-04-19T04:09:30.157Z,4.64
2023-04-19T04:10:30.159Z,4.65
2023-04-19T04:11:30.147Z,4.65
2023-04-19T04:12:30.125Z,4.58
2023-04-19T04:13:30.122Z,4.57
2023-04-19T04:14:30.129Z,4.62
2023-04-19T04:15:30.117Z,4.59
2023-04-19T04:16:30.119Z,4.59
2023-04-19T04:17:30.111Z,4.59
2023-04-19T04:18:30.075Z,4.62
2023-04-19T04:19:30.056Z,4.65
2023-04-19T04:20:30.046Z,4.65
2023-04-19T04:21:30.038Z,4.65
2023-04-19T04:22:30.019Z,4.62
2023-04-19T04:23:30.029Z,4.65
2023-04-19T04:24:29.999Z,4.62
2023-04-19T04:25:29.999Z,4.64
2023-04-19T04:26:29.980Z,4.61
2023-04-19T04:27:29.975Z,4.59
2023-04-19T04:28:29.975Z,4.61
2023-04-19T04:29:29.954Z,4.57
2023-04-19T04:30:29.946Z,4.57
2023-04-19T04:31:29.984Z,4.57
2023-04-19T04:32:29.952Z,4.58
2023-04-19T04:33:29.929Z,4.58
2023-04-19T04:34:29.923Z,4.57
2023-04-19T04:35:29.926Z,4.57
2023-04-19T04:36:29.905Z,4.58
2023-04-19T04:37:29.889Z,4.61
2023-04-19T04:38:29.894Z,4.58
2023-04-19T04:39:29.854Z,4.57
2023-04-19T04:40:29.855Z,4.59
2023-04-19T04:41:29.842Z,4.57
2023-04-19T04:42:29.836Z,4.57
2023-04-19T04:43:29.968Z,4.57
2023-04-19T04:44:29.820Z,4.57
2023-04-19T04:45:29.841Z,4.62
2023-04-19T04:46:29.791Z,4.61
2023-04-19T04:47:29.796Z,4.65
2023-04-19T04:48:29.786Z,4.65
2023-04-19T04:49:29.836Z,4.67
2023-04-19T04:50:29.782Z,4.64
2023-04-19T04:51:29.736Z,4.69
2023-04-19T04:52:29.716Z,4.65
2023-04-19T04:53:29.731Z,4.65
2023-04-19T04:54:29.705Z,4.64
2023-04-19T04:55:29.696Z,4.65
2023-04-19T04:56:29.735Z,4.65
2023-04-19T04:57:29.680Z,4.69
2023-04-19T04:58:29.672Z,4.70
2023-04-19T04:59:29.644Z,4.72
2023-04-19T05:00:29.668Z,4.73
2023-04-19T05:01:29.676Z,4.72
2023-04-19T05:02:29.713Z,4.75
2023-04-19T05:03:29.646Z,4.77
2023-04-19T05:04:29.649Z,4.73
2023-04-19T05:05:29.588Z,4.73
2023-04-19T05:06:29.578Z,4.73
2023-04-19T05:07:29.597Z,4.76
2023-04-19T05:08:29.559Z,4.76
2023-04-19T05:09:29.540Z,4.79
2023-04-19T05:10:29.532Z,4.83
2023-04-19T05:11:29.534Z,4.79
2023-04-19T05:12:29.517Z,4.84
2023-04-19T05:13:29.509Z,4.86
2023-04-19T05:14:29.511Z,4.89
2023-04-19T05:15:29.476Z,4.89
2023-04-19T05:16:29.489Z,4.91
2023-04-19T05:17:29.528Z,4.89
2023-04-19T05:18:29.460Z,4.91
2023-04-19T05:19:29.436Z,4.96
2023-04-19T05:20:29.426Z,4.96
2023-04-19T05:21:29.424Z,4.98
2023-04-19T05:22:29.409Z,5.01
2023-04-19T05:23:29.466Z,5.01
2023-04-19T05:24:29.409Z,5.07
2023-04-19T05:25:29.364Z,5.02
2023-04-19T05:26:29.368Z,5.07
2023-04-19T05:27:29.347Z,5.09
2023-04-19T05:28:29.379Z,5.10
2023-04-19T05:29:29.345Z,5.17
2023-04-19T05:30:29.338Z,5.16
2023-04-19T05:31:29.371Z,5.13
2023-04-19T05:32:29.353Z,5.14
2023-04-19T05:33:29.305Z,5.17
2023-04-19T05:34:29.289Z,5.13
2023-04-19T05:35:29.266Z,5.14
2023-04-19T05:36:29.261Z,5.17
2023-04-19T05:37:29.234Z,5.20
2023-04-19T05:38:29.261Z,5.27
2023-04-19T05:39:29.250Z,5.30
2023-04-19T05:40:29.212Z,5.32
2023-04-19T05:41:29.206Z,5.34
2023-04-19T05:42:29.196Z,5.31
2023-04-19T05:43:29.186Z,5.34
2023-04-19T05:44:29.182Z,5.37
2023-04-19T05:45:29.169Z,5.37
2023-04-19T05:46:29.275Z,5.35
2023-04-19T05:47:29.167Z,5.40
2023-04-19T05:48:29.130Z,5.46
2023-04-19T05:49:29.175Z,5.53
2023-04-19T05:50:29.121Z,5.57
2023-04-19T05:51:29.116Z,5.63
2023-04-19T05:52:29.095Z,5.66
2023-04-19T05:53:29.143Z,5.70
2023-04-19T05:54:29.112Z,5.70
2023-04-19T05:55:29.105Z,5.67
2023-04-19T05:56:29.038Z,5.68
2023-04-19T05:57:29.087Z,5.71
2023-04-19T05:58:29.105Z,5.78
2023-04-19T05:59:29.059Z,5.85
2023-04-19T06:00:29.006Z,5.89
2023-04-19T06:01:28.990Z,5.92
2023-04-19T06:02:29.074Z,5.96
2023-04-19T06:03:31.430Z,6.00
2023-04-19T06:04:29.196Z,6.03
2023-04-19T06:05:29.012Z,6.03
2023-04-19T06:06:29.151Z,6.07
2023-04-19T06:07:32.826Z,6.11
2023-04-19T06:08:28.928Z,6.14
2023-04-19T06:09:28.901Z,6.19
2023-04-19T06:10:36.806Z,6.19
2023-04-19T06:11:38.464Z,6.21
2023-04-19T06:12:28.863Z,6.28
2023-04-19T06:13:28.868Z,6.28
2023-04-19T06:14:28.847Z,6.40
2023-04-19T06:15:28.854Z,6.46
2023-04-19T06:16:28.895Z,6.53
2023-04-19T06:17:28.885Z,6.58
2023-04-19T06:18:28.813Z,6.66
2023-04-19T06:19:28.803Z,6.72
2023-04-19T06:20:28.795Z,6.79
2023-04-19T06:21:28.807Z,6.84
2023-04-19T06:22:28.782Z,6.98
2023-04-19T06:23:28.773Z,7.16
2023-04-19T06:24:28.788Z,7.40
2023-04-19T06:25:28.779Z,7.37
2023-04-19T06:26:28.757Z,7.47
2023-04-19T06:27:28.722Z,7.60
2023-04-19T06:28:28.707Z,7.77
2023-04-19T06:29:28.753Z,7.85
2023-04-19T06:30:29.194Z,7.94
2023-04-19T06:31:28.729Z,7.96
2023-04-19T06:37:10.301Z,8.18
2023-04-19T06:38:11.278Z,8.25
2023-04-19T06:39:11.259Z,8.29
2023-04-19T06:40:11.239Z,8.18
2023-04-19T06:41:11.249Z,8.22
2023-04-19T06:42:11.232Z,8.29
2023-04-19T06:43:11.229Z,8.44
2023-04-19T06:44:11.261Z,8.69
2023-04-19T06:45:11.430Z,8.90
2023-04-19T06:46:11.227Z,8.99
2023-04-19T06:47:11.200Z,8.99
2023-04-19T06:48:11.202Z,8.84
2023-04-19T06:49:11.142Z,8.88
2023-04-19T06:50:11.171Z,9.09
2023-04-19T06:51:11.162Z,9.12
2023-04-19T06:52:11.113Z,9.12
2023-04-19T06:53:11.123Z,9.25
2023-04-19T06:54:11.138Z,9.21
2023-04-19T06:55:11.085Z,9.13
2023-04-19T06:56:11.121Z,8.97
2023-04-19T06:57:11.086Z,9.20
2023-04-19T06:58:11.121Z,9.32
2023-04-19T06:59:11.061Z,9.35
2023-04-19T07:00:11.038Z,9.39
2023-04-19T07:01:11.049Z,9.46
2023-04-19T07:02:11.096Z,9.73
2023-04-19T07:03:11.268Z,9.89
2023-04-19T07:04:11.055Z,9.63
2023-04-19T07:05:10.980Z,9.66
2023-04-19T07:06:10.970Z,9.61
2023-04-19T07:07:10.964Z,9.64
2023-04-19T07:08:10.951Z,9.60
2023-04-19T07:09:10.984Z,9.68
2023-04-19T07:10:11.104Z,9.75
2023-04-19T07:11:10.928Z,9.85
2023-04-19T07:12:10.890Z,10.09
2023-04-19T07:13:10.898Z,10.36
2023-04-19T07:14:10.906Z,10.68
2023-04-19T07:15:10.919Z,10.70
2023-04-19T07:16:10.984Z,10.34
2023-04-19T07:17:10.877Z,10.24
2023-04-19T07:18:10.855Z,10.51
2023-04-19T07:19:10.876Z,10.44
2023-04-19T07:20:10.807Z,10.56
2023-04-19T07:21:10.858Z,10.66
2023-04-19T07:22:11.328Z,10.53
2023-04-19T07:23:10.794Z,10.44
2023-04-19T07:24:10.783Z,10.43
2023-04-19T07:25:10.759Z,10.71
2023-04-19T07:26:10.766Z,10.77
2023-04-19T07:27:10.799Z,10.80
2023-04-19T07:28:10.722Z,10.78
2023-04-19T07:29:10.703Z,10.71
2023-04-19T07:30:10.743Z,10.73
2023-04-19T07:31:10.698Z,10.83
2023-04-19T07:32:10.722Z,10.86
2023-04-19T07:33:10.763Z,10.76
2023-04-19T07:34:10.689Z,10.78
2023-04-19T07:35:10.804Z,10.77
2023-04-19T07:36:10.676Z,10.76
2023-04-19T07:37:10.661Z,10.81
2023-04-19T07:38:10.612Z,10.86
2023-04-19T07:39:10.622Z,10.98
2023-04-19T07:40:10.611Z,11.17
2023-04-19T07:41:10.589Z,11.46
2023-04-19T07:42:10.586Z,11.59
2023-04-19T07:43:10.557Z,11.59
2023-04-19T07:44:10.561Z,11.32
2023-04-19T07:45:10.567Z,11.29
2023-04-19T07:46:10.562Z,11.47
2023-04-19T07:47:10.569Z,11.72
2023-04-19T07:48:10.589Z,11.78
2023-04-19T07:49:10.490Z,11.83
2023-04-19T07:50:10.501Z,11.70
2023-04-19T07:51:10.496Z,11.61
2023-04-19T07:52:10.455Z,11.54
2023-04-19T07:53:10.499Z,11.49
2023-04-19T07:54:10.529Z,11.64
2023-04-19T07:55:10.458Z,11.82
2023-04-19T07:56:12.645Z,11.77
2023-04-19T07:57:10.424Z,11.65
2023-04-19T07:58:10.453Z,11.77
2023-04-19T07:59:10.396Z,11.99
2023-04-19T08:00:10.409Z,11.97
2023-04-19T08:01:10.418Z,11.99
2023-04-19T08:02:10.482Z,11.97
2023-04-19T08:03:10.444Z,11.70
2023-04-19T08:04:10.713Z,11.53
2023-04-19T08:05:10.421Z,11.67
2023-04-19T08:06:10.330Z,11.86
2023-04-19T08:07:10.314Z,11.85
2023-04-19T08:08:10.320Z,12.01
2023-04-19T08:09:10.322Z,12.06
2023-04-19T08:10:10.476Z,12.13
2023-04-19T08:11:10.449Z,12.29
2023-04-19T08:12:12.736Z,12.37
2023-04-19T08:13:10.299Z,12.26
2023-04-19T08:14:18.494Z,12.31
2023-04-19T08:15:32.847Z,12.13
2023-04-19T08:16:24.646Z,12.39
2023-04-19T08:18:10.195Z,12.60
2023-04-19T08:19:10.602Z,12.70
2023-04-19T08:20:10.188Z,12.75
2023-04-19T08:21:10.184Z,12.77
2023-04-19T08:22:10.181Z,12.87
2023-04-19T08:23:20.586Z,12.85
2023-04-19T08:24:10.141Z,13.00
2023-04-19T08:25:10.166Z,12.87
2023-04-19T08:26:10.111Z,12.79
2023-04-19T08:27:10.078Z,12.81
2023-04-19T08:28:10.151Z,12.77
2023-04-19T08:29:10.065Z,12.42
2023-04-19T08:30:10.066Z,12.31
2023-04-19T08:31:10.082Z,12.39
2023-04-19T08:32:10.091Z,12.49
2023-04-19T08:33:10.055Z,12.30
2023-04-19T08:34:10.041Z,12.37
2023-04-19T08:35:09.994Z,12.56
2023-04-19T08:36:10.028Z,12.64
2023-04-19T08:37:09.987Z,12.52
2023-04-19T08:38:09.985Z,12.42
2023-04-19T08:39:25.114Z,12.46
2023-04-19T08:40:09.956Z,12.57
2023-04-19T08:41:10.038Z,12.42
2023-04-19T08:42:24.146Z,12.30
2023-04-19T08:43:09.929Z,12.16
2023-04-19T08:44:09.926Z,12.19
2023-04-19T08:45:27.051Z,12.23
2023-04-19T08:46:09.943Z,12.05
2023-04-19T08:47:11.586Z,11.90
2023-04-19T08:48:09.873Z,11.75
2023-04-19T08:49:09.835Z,11.52
2023-04-19T08:50:23.952Z,11.47
2023-04-19T08:51:09.835Z,11.67
2023-04-19T08:52:09.830Z,12.02
2023-04-19T08:54:09.921Z,12.34
2023-04-19T08:55:09.847Z,12.39
2023-04-19T08:56:20.668Z,12.67
2023-04-19T08:57:09.806Z,12.74
2023-04-19T08:58:18.982Z,12.57
2023-04-19T08:59:18.082Z,12.52
2023-04-19T09:00:09.825Z,12.51
2023-04-19T09:01:14.790Z,12.64
2023-04-19T09:02:09.822Z,12.87
2023-04-19T09:03:09.814Z,12.92
2023-04-19T09:04:34.693Z,12.96
2023-04-19T09:05:09.917Z,12.97
2023-04-19T09:06:09.801Z,12.78
2023-04-19T09:07:09.665Z,12.67
2023-04-19T09:08:09.661Z,12.97
2023-04-19T09:09:14.271Z,12.99
2023-04-19T09:10:10.060Z,12.79
2023-04-19T09:11:09.600Z,12.77
2023-04-19T09:12:09.588Z,12.77
2023-04-19T09:13:09.607Z,13.07
2023-04-19T09:14:09.585Z,13.04
2023-04-19T09:15:09.569Z,13.11
2023-04-19T09:16:09.564Z,13.41
2023-04-19T09:17:10.539Z,13.58
2023-04-19T09:18:09.900Z,13.77
2023-04-19T09:19:22.291Z,13.62
2023-04-19T09:20:09.536Z,13.32
2023-04-19T09:21:09.484Z,13.04
2023-04-19T09:22:09.501Z,12.95
2023-04-19T09:23:09.468Z,13.02
2023-04-19T09:24:09.481Z,13.02
2023-04-19T09:26:22.861Z,13.61
2023-04-19T09:27:09.510Z,13.76
2023-04-19T09:28:10.048Z,13.89
2023-04-19T09:29:09.443Z,14.13
2023-04-19T09:30:17.507Z,14.54
2023-04-19T09:31:26.304Z,14.56
2023-04-19T09:32:09.435Z,14.43
2023-04-19T09:33:09.416Z,14.24
2023-04-19T09:34:09.339Z,14.09
2023-04-19T09:35:09.356Z,13.98
2023-04-19T09:36:09.371Z,14.14
2023-04-19T09:37:17.242Z,14.14
2023-04-19T09:38:09.316Z,14.07
2023-04-19T09:39:09.294Z,14.09
2023-04-19T09:40:09.277Z,13.80
2023-04-19T09:41:09.273Z,13.09
2023-04-19T09:42:09.487Z,12.62
2023-04-19T09:43:29.119Z,12.49
2023-04-19T09:44:50.270Z,12.51
2023-04-19T09:46:09.250Z,12.63
2023-04-19T09:47:09.238Z,12.41
2023-04-19T09:48:09.268Z,12.37
2023-04-19T09:49:17.116Z,12.37
2023-04-19T09:50:21.894Z,12.27
2023-04-19T09:51:12.814Z,12.20
2023-04-19T09:52:09.158Z,12.44
2023-04-19T09:53:09.163Z,12.64
2023-04-19T09:54:09.150Z,12.75
2023-04-19T09:55:22.212Z,12.97
2023-04-19T09:56:09.114Z,13.22
2023-04-19T09:57:09.132Z,13.43
2023-04-19T09:58:09.132Z,13.62
2023-04-19T09:59:20.411Z,13.98
2023-04-19T10:00:09.057Z,14.06
2023-04-19T10:01:15.097Z,13.87
2023-04-19T10:02:09.128Z,13.80
2023-04-19T10:03:09.110Z,13.96
2023-04-19T10:04:22.519Z,13.98
2023-04-19T10:05:19.924Z,14.29
2023-04-19T10:06:14.510Z,14.21
2023-04-19T10:07:29.443Z,14.13
2023-04-19T10:08:09.081Z,13.89
2023-04-19T10:09:09.058Z,13.95
2023-04-19T10:10:19.569Z,14.09
2023-04-19T10:11:08.953Z,14.14
2023-04-19T10:12:23.925Z,14.28
2023-04-19T10:13:19.076Z,14.46
2023-04-19T10:14:09.040Z,14.52
2023-04-19T10:15:08.894Z,14.71
2023-04-19T10:16:18.782Z,14.68
2023-04-19T10:17:08.941Z,14.44
2023-04-19T10:18:08.862Z,14.31
2023-04-19T10:19:10.038Z,13.92
2023-04-19T10:20:08.860Z,13.88
2023-04-19T10:21:08.833Z,14.13
2023-04-19T10:22:08.861Z,14.32
2023-04-19T10:23:08.802Z,14.60
2023-04-19T10:24:08.892Z,14.52
2023-04-19T10:25:08.817Z,14.17
2023-04-19T10:26:08.779Z,13.92
2023-04-19T10:27:08.772Z,13.73
2023-04-19T10:28:08.762Z,13.73
2023-04-19T10:29:08.769Z,14.02
2023-04-19T10:30:08.737Z,14.43
2023-04-19T10:31:08.737Z,14.71
2023-04-19T10:32:08.786Z,14.83
2023-04-19T10:33:08.734Z,14.80
2023-04-19T10:34:08.722Z,14.94
2023-04-19T10:35:08.685Z,14.74
2023-04-19T10:36:08.709Z,14.47
2023-04-19T10:37:08.687Z,14.64
2023-04-19T10:38:08.761Z,14.98
2023-04-19T10:39:08.652Z,15.12
2023-04-19T10:40:08.799Z,14.75
2023-04-19T10:41:08.688Z,14.34
2023-04-19T10:42:08.598Z,13.61
2023-04-19T10:43:08.591Z,13.32
2023-04-19T10:44:08.663Z,13.29
2023-04-19T10:45:08.584Z,13.14
2023-04-19T10:46:08.639Z,13.25
2023-04-19T10:47:08.555Z,13.38
2023-04-19T10:48:08.536Z,13.59
2023-04-19T10:49:08.998Z,13.27
2023-04-19T10:50:08.566Z,13.17
2023-04-19T10:51:08.514Z,13.02
2023-04-19T10:52:08.495Z,12.79
2023-04-19T10:53:08.501Z,12.71
2023-04-19T10:54:08.503Z,12.67
2023-04-19T10:55:08.495Z,12.66
2023-04-19T10:56:08.479Z,12.45
2023-04-19T10:57:08.465Z,12.52
2023-04-19T10:58:08.485Z,12.88
2023-04-19T10:59:08.615Z,13.14
2023-04-19T11:00:08.496Z,13.32
2023-04-19T11:01:08.391Z,13.51
2023-04-19T11:02:08.504Z,13.71
2023-04-19T11:03:08.512Z,14.02
2023-04-19T11:04:08.524Z,14.04
2023-04-19T11:05:08.355Z,13.83
2023-04-19T11:06:08.634Z,13.91
2023-04-19T11:07:08.322Z,14.14
2023-04-19T11:08:08.322Z,14.44
2023-04-19T11:09:08.333Z,14.60
2023-04-19T11:10:08.305Z,14.78
2023-04-19T11:11:08.286Z,14.87
2023-04-19T11:12:08.345Z,14.61
2023-04-19T11:13:08.259Z,14.07
2023-04-19T11:14:08.261Z,13.67
2023-04-19T11:15:08.273Z,13.55
2023-04-19T11:16:08.315Z,13.46
2023-04-19T11:17:08.245Z,13.25
2023-04-19T11:18:12.836Z,13.40
2023-04-19T11:19:08.199Z,13.36
2023-04-19T11:20:08.208Z,13.44
2023-04-19T11:21:08.172Z,13.79
2023-04-19T11:22:08.173Z,14.17
2023-04-19T11:23:08.189Z,14.10
2023-04-19T11:24:08.168Z,14.09
2023-04-19T11:25:08.154Z,14.21
2023-04-19T11:26:08.339Z,14.38
2023-04-19T11:27:08.108Z,14.43
2023-04-19T11:28:08.117Z,14.39
2023-04-19T11:29:08.093Z,14.44
2023-04-19T11:30:08.089Z,14.72
2023-04-19T11:31:08.156Z,14.99
2023-04-19T11:32:08.056Z,15.13
2023-04-19T11:33:08.058Z,15.03
2023-04-19T11:34:08.048Z,15.17
2023-04-19T11:35:08.070Z,14.93
2023-04-19T11:36:08.025Z,14.84
2023-04-19T11:37:07.994Z,14.68
2023-04-19T11:38:07.993Z,14.47
2023-04-19T11:39:07.989Z,14.53
2023-04-19T11:40:07.992Z,14.29
2023-04-19T11:41:07.984Z,14.31
2023-04-19T11:42:07.966Z,14.27
2023-04-19T11:43:07.982Z,14.19
2023-04-19T11:44:07.930Z,14.32
2023-04-19T11:45:18.664Z,14.14
2023-04-19T11:46:08.029Z,14.01
2023-04-19T11:47:08.099Z,14.16
2023-04-19T11:48:07.987Z,14.19
2023-04-19T11:49:07.880Z,14.17
2023-04-19T11:50:07.905Z,14.14
2023-04-19T11:51:08.038Z,14.10
2023-04-19T11:52:07.861Z,13.91
2023-04-19T11:53:07.900Z,13.79
2023-04-19T11:54:07.870Z,13.65
2023-04-19T11:55:07.824Z,13.58
2023-04-19T11:56:07.807Z,13.51
2023-04-19T11:57:07.784Z,13.47
2023-04-19T11:58:07.760Z,13.44
2023-04-19T11:59:07.774Z,13.46
2023-04-19T12:00:07.803Z,13.46
2023-04-19T12:01:07.772Z,13.25
2023-04-19T12:02:07.914Z,13.15
2023-04-19T12:03:07.981Z,13.18
2023-04-19T12:04:07.854Z,13.17
2023-04-19T12:05:07.845Z,13.17
2023-04-19T12:06:07.857Z,13.15
2023-04-19T12:07:07.698Z,13.15
2023-04-19T12:08:07.664Z,13.11
2023-04-19T12:09:07.649Z,13.15
2023-04-19T12:10:07.690Z,13.21
2023-04-19T12:11:07.659Z,13.32
2023-04-19T12:12:07.650Z,13.58
2023-04-19T12:13:07.617Z,13.80
2023-04-19T12:14:07.620Z,13.88
2023-04-19T12:15:07.583Z,13.99
2023-04-19T12:16:07.615Z,13.91
2023-04-19T12:17:07.742Z,14.07
2023-04-19T12:18:07.684Z,13.84
2023-04-19T12:19:07.548Z,13.80
2023-04-19T12:20:07.601Z,13.62
2023-04-19T12:21:07.526Z,13.49
2023-04-19T12:22:07.529Z,13.58
2023-04-19T12:23:07.498Z,13.56
2023-04-19T12:24:07.587Z,13.58
2023-04-19T12:25:07.479Z,13.62
2023-04-19T12:26:07.472Z,13.46
2023-04-19T12:27:07.496Z,13.32
2023-04-19T12:28:07.518Z,13.36
2023-04-19T12:29:07.440Z,13.40
2023-04-19T12:30:07.436Z,13.22
2023-04-19T12:31:07.423Z,13.02
2023-04-19T12:32:07.461Z,13.03
2023-04-19T12:33:07.476Z,13.11
2023-04-19T12:34:07.405Z,13.15
2023-04-19T12:35:07.389Z,13.20
2023-04-19T12:36:07.375Z,13.27
2023-04-19T12:37:07.358Z,13.25
2023-04-19T12:38:07.354Z,13.22
2023-04-19T12:39:07.330Z,13.29
2023-04-19T12:40:07.309Z,13.33
2023-04-19T12:41:07.289Z,13.36
2023-04-19T12:42:07.310Z,13.32
2023-04-19T12:43:07.277Z,13.49
2023-04-19T12:44:07.271Z,13.59
2023-04-19T12:45:07.255Z,13.76
2023-04-19T12:46:07.297Z,13.76
2023-04-19T12:47:07.281Z,13.83
2023-04-19T12:48:07.409Z,13.84
2023-04-19T12:49:07.218Z,13.73
2023-04-19T12:50:07.344Z,13.69
2023-04-19T12:51:07.185Z,13.63
2023-04-19T12:52:07.203Z,13.56
2023-04-19T12:53:08.157Z,13.46
2023-04-19T12:54:07.160Z,13.40
2023-04-19T12:55:07.138Z,13.65
2023-04-19T12:56:07.151Z,13.80
2023-04-19T12:57:07.134Z,13.73
2023-04-19T12:58:07.147Z,13.83
2023-04-19T12:59:07.107Z,13.98
2023-04-19T13:00:07.200Z,14.25
2023-04-19T13:01:07.093Z,14.57
2023-04-19T13:02:07.280Z,14.50
2023-04-19T13:03:07.230Z,14.53
2023-04-19T13:04:07.315Z,14.71
2023-04-19T13:05:07.045Z,14.90
2023-04-19T13:06:07.017Z,14.90
2023-04-19T13:07:07.021Z,14.75
2023-04-19T13:08:07.020Z,14.65
2023-04-19T13:09:14.159Z,14.62
2023-04-19T13:10:06.999Z,14.53
2023-04-19T13:11:06.963Z,14.42
2023-04-19T13:12:06.972Z,14.65
2023-04-19T13:13:06.957Z,14.39
2023-04-19T13:14:06.952Z,14.60
2023-04-19T13:15:06.932Z,14.94
2023-04-19T13:16:06.947Z,15.33
2023-04-19T13:17:06.912Z,15.57
2023-04-19T13:18:06.952Z,15.63
2023-04-19T13:19:06.888Z,15.81
2023-04-19T13:20:06.869Z,15.51
2023-04-19T13:21:08.512Z,15.52
2023-04-19T13:22:07.081Z,15.72
2023-04-19T13:23:06.843Z,15.89
2023-04-19T13:24:06.830Z,15.99
2023-04-19T13:25:06.836Z,16.11
2023-04-19T13:26:06.805Z,15.85
2023-04-19T13:27:08.707Z,15.21
2023-04-19T13:28:06.879Z,15.02
2023-04-19T13:29:06.781Z,14.90
2023-04-19T13:30:06.806Z,14.42
2023-04-19T13:31:06.829Z,14.02
2023-04-19T13:32:06.749Z,14.01
2023-04-19T13:33:08.253Z,13.89
2023-04-19T13:34:06.765Z,13.95
2023-04-19T13:35:06.707Z,13.81
2023-04-19T13:36:06.707Z,13.91
2023-04-19T13:37:06.713Z,13.83
2023-04-19T13:38:06.717Z,13.76
2023-04-19T13:39:08.269Z,13.71
2023-04-19T13:40:18.028Z,13.71
2023-04-19T13:41:06.733Z,13.74
2023-04-19T13:42:06.662Z,13.55
2023-04-19T13:43:06.627Z,13.46
2023-04-19T13:44:06.629Z,13.27
2023-04-19T13:45:06.614Z,13.22
2023-04-19T13:46:06.633Z,13.30
2023-04-19T13:47:06.628Z,13.24
2023-04-19T13:48:06.646Z,13.20
2023-04-19T13:49:06.553Z,13.20
2023-04-19T13:50:06.552Z,13.25
2023-04-19T13:51:06.599Z,13.18
2023-04-19T13:52:06.547Z,13.11
2023-04-19T13:53:06.537Z,13.02
2023-04-19T13:54:06.546Z,13.07
2023-04-19T13:55:06.505Z,13.03
2023-04-19T13:56:08.304Z,13.02
2023-04-19T13:57:06.536Z,12.87
2023-04-19T13:58:06.470Z,12.82
2023-04-19T13:59:06.553Z,12.71
2023-04-19T14:00:06.462Z,12.67
2023-04-19T14:01:06.591Z,12.51
2023-04-19T14:02:06.504Z,12.46
2023-04-19T14:03:06.568Z,12.37
2023-04-19T14:04:06.800Z,12.23
2023-04-19T14:05:06.388Z,12.20
2023-04-19T14:06:06.385Z,12.21
2023-04-19T14:07:06.398Z,12.24
2023-04-19T14:08:06.394Z,12.23
2023-04-19T14:09:06.360Z,12.26
2023-04-19T14:10:06.639Z,12.15
2023-04-19T14:11:06.314Z,12.05
2023-04-19T14:12:06.407Z,11.89
2023-04-19T14:13:06.302Z,11.83
2023-04-19T14:14:06.299Z,11.77
2023-04-19T14:15:06.318Z,11.67
2023-04-19T14:16:06.491Z,11.49
2023-04-19T14:17:06.263Z,11.38
2023-04-19T14:18:06.352Z,11.16
2023-04-19T14:19:06.234Z,10.92
2023-04-19T14:20:07.175Z,10.95
2023-04-19T14:21:06.219Z,10.94
2023-04-19T14:22:06.478Z,10.94
2023-04-19T14:23:06.200Z,10.91
2023-04-19T14:24:06.203Z,10.94
2023-04-19T14:25:06.249Z,10.95
2023-04-19T14:26:06.212Z,11.01
2023-04-19T14:27:10.269Z,11.07
2023-04-19T14:28:06.181Z,11.14
2023-04-19T14:29:06.137Z,11.31
2023-04-19T14:30:06.109Z,11.49
2023-04-19T14:31:06.121Z,11.62
2023-04-19T14:32:21.320Z,11.77
2023-04-19T14:33:06.151Z,11.85
2023-04-19T14:34:06.085Z,11.96
2023-04-19T14:35:06.066Z,12.05
2023-04-19T14:36:06.146Z,12.12
2023-04-19T14:37:06.033Z,12.08
2023-04-19T14:38:06.092Z,12.12
2023-04-19T14:39:06.039Z,12.01
2023-04-19T14:40:06.024Z,11.87
2023-04-19T14:41:06.002Z,11.94
2023-04-19T14:42:05.986Z,11.93
2023-04-19T14:43:06.026Z,11.94
2023-04-19T14:44:05.973Z,11.94
2023-04-19T14:45:06.127Z,11.96
2023-04-19T14:46:06.102Z,11.93
2023-04-19T14:47:05.965Z,11.87
2023-04-19T14:48:05.983Z,11.71
2023-04-19T14:49:05.929Z,11.64
2023-04-19T14:50:05.980Z,11.62
2023-04-19T14:51:05.885Z,11.65
2023-04-19T14:52:05.892Z,11.62
2023-04-19T14:53:05.893Z,11.61
2023-04-19T14:54:05.906Z,11.50
2023-04-19T14:55:05.865Z,11.43
2023-04-19T14:56:05.831Z,11.32
2023-04-19T14:57:05.819Z,11.28
2023-04-19T14:58:05.827Z,11.21
2023-04-19T14:59:05.824Z,11.28
2023-04-19T15:00:05.777Z,11.31
2023-04-19T15:01:05.818Z,11.34
2023-04-19T15:02:05.780Z,11.28
2023-04-19T15:03:05.921Z,11.13
2023-04-19T15:04:06.060Z,11.09
2023-04-19T15:05:06.045Z,11.06
2023-04-19T15:06:05.712Z,11.10
2023-04-19T15:07:05.701Z,11.10
2023-04-19T15:08:05.766Z,10.99
2023-04-19T15:09:05.727Z,10.99
2023-04-19T15:10:05.666Z,10.92
2023-04-19T15:11:05.678Z,10.80
2023-04-19T15:12:05.652Z,10.66
2023-04-19T15:13:05.665Z,10.56
2023-04-19T15:14:05.631Z,10.42
2023-04-19T15:15:05.631Z,10.34
2023-04-19T15:16:06.142Z,10.28
2023-04-19T15:17:05.618Z,10.18
2023-04-19T15:18:05.806Z,10.04
2023-04-19T15:19:05.589Z,9.97
2023-04-19T15:20:05.594Z,9.97
2023-04-19T15:21:05.556Z,9.89
2023-04-19T15:22:05.746Z,9.75
2023-04-19T15:23:05.567Z,9.73
2023-04-19T15:24:05.540Z,9.68
2023-04-19T15:25:05.547Z,9.63
2023-04-19T15:26:05.496Z,9.57
2023-04-19T15:27:05.525Z,9.50
2023-04-19T15:28:05.515Z,9.56
2023-04-19T15:29:05.523Z,9.57
2023-04-19T15:30:05.496Z,9.32
2023-04-19T15:31:05.568Z,9.15
2023-04-19T15:32:05.452Z,9.05
2023-04-19T15:33:05.521Z,8.97
2023-04-19T15:34:05.440Z,8.71
2023-04-19T15:35:05.467Z,8.48
2023-04-19T15:36:05.469Z,8.37
2023-04-19T15:37:05.406Z,8.21
2023-04-19T15:38:05.387Z,8.07
2023-04-19T15:39:05.455Z,7.96
2023-04-19T15:40:05.402Z,7.84
2023-04-19T15:41:05.351Z,7.79
2023-04-19T15:42:05.364Z,7.69
2023-04-19T15:43:05.332Z,7.52
2023-04-19T15:44:05.345Z,7.34
2023-04-19T15:45:05.358Z,7.20
2023-04-19T15:46:05.317Z,7.13
2023-04-19T15:47:05.318Z,7.13
2023-04-19T15:48:05.332Z,7.08
2023-04-19T15:49:05.379Z,7.08
2023-04-19T15:50:05.279Z,6.97
2023-04-19T15:51:05.365Z,6.86
2023-04-19T15:52:05.240Z,6.81
2023-04-19T15:53:05.209Z,6.68
2023-04-19T15:54:05.218Z,6.66
2023-04-19T15:55:05.207Z,6.71
2023-04-19T15:56:05.201Z,6.69
2023-04-19T15:57:05.169Z,6.58
2023-04-19T15:58:05.178Z,6.50
2023-04-19T15:59:05.163Z,6.44
2023-04-19T16:00:05.205Z,6.44
2023-04-19T16:01:05.130Z,6.33
2023-04-19T16:02:05.175Z,6.33
2023-04-19T16:03:05.221Z,6.40
2023-04-19T16:04:05.468Z,6.48
2023-04-19T16:05:05.295Z,6.50
2023-04-19T16:06:05.077Z,6.58
2023-04-19T16:07:05.070Z,6.54
2023-04-19T16:08:05.055Z,6.51
2023-04-19T16:09:05.054Z,6.51
2023-04-19T16:10:05.112Z,6.53
2023-04-19T16:11:05.065Z,6.59
2023-04-19T16:12:05.086Z,6.59
2023-04-19T16:13:05.050Z,6.58
2023-04-19T16:14:05.014Z,6.51
2023-04-19T16:15:05.013Z,6.48
2023-04-19T16:16:05.000Z,6.56
2023-04-19T16:17:05.156Z,6.56
2023-04-19T16:18:05.018Z,6.50
2023-04-19T16:19:04.933Z,6.44
2023-04-19T16:20:04.959Z,6.44
2023-04-19T16:21:04.977Z,6.43
2023-04-19T16:22:04.936Z,6.41
2023-04-19T16:23:04.944Z,6.35
2023-04-19T16:24:04.916Z,6.32
2023-04-19T16:25:05.372Z,6.25
2023-04-19T16:26:04.897Z,6.19
2023-04-19T16:27:04.908Z,6.26
2023-04-19T16:28:04.885Z,6.29
2023-04-19T16:29:04.842Z,6.35
2023-04-19T16:30:04.814Z,6.40
2023-04-19T16:31:04.841Z,6.38
2023-04-19T16:32:04.840Z,6.38
2023-04-19T16:33:04.804Z,6.40
2023-04-19T16:34:04.789Z,6.35
2023-04-19T16:35:04.812Z,6.41
2023-04-19T16:36:04.751Z,6.43
2023-04-19T16:37:04.750Z,6.43
2023-04-19T16:38:04.855Z,6.41
2023-04-19T16:39:04.727Z,6.36
2023-04-19T16:40:04.781Z,6.38
2023-04-19T16:41:04.709Z,6.40
2023-04-19T16:42:04.699Z,6.35
2023-04-19T16:43:04.785Z,6.33
2023-04-19T16:44:04.676Z,6.36
2023-04-19T16:45:04.656Z,6.33
2023-04-19T16:46:04.726Z,6.30
2023-04-19T16:47:04.633Z,6.30
2023-04-19T16:48:04.656Z,6.30
2023-04-19T16:49:04.653Z,6.36
2023-04-19T16:50:04.601Z,6.40
2023-04-19T16:51:04.621Z,6.36
2023-04-19T16:52:04.599Z,6.38
2023-04-19T16:53:04.617Z,6.40
2023-04-19T16:54:04.575Z,6.40
2023-04-19T16:55:04.588Z,6.41
2023-04-19T16:56:04.590Z,6.33
2023-04-19T16:57:04.532Z,6.32
2023-04-19T16:58:04.501Z,6.36
2023-04-19T16:59:04.507Z,6.40
2023-04-19T17:00:04.647Z,6.43
2023-04-19T17:01:04.588Z,6.43
2023-04-19T17:02:04.533Z,6.41
2023-04-19T17:03:04.572Z,6.47
2023-04-19T17:04:04.687Z,6.43
2023-04-19T17:05:04.537Z,6.41
2023-04-19T17:06:04.452Z,6.43
2023-04-19T17:07:04.449Z,6.46
2023-04-19T17:08:04.410Z,6.41
2023-04-19T17:09:04.402Z,6.35
2023-04-19T17:10:04.399Z,6.38
2023-04-19T17:11:04.392Z,6.36